createdAt,value
2019-02-18T00:01:36.535Z,6.90
2019-02-18T00:04:06.175Z,6.90
2019-02-18T00:06:35.738Z,6.90
2019-02-18T00:09:06.211Z,6.80
2019-02-18T00:11:38.569Z,6.80
2019-02-18T00:14:08.293Z,6.70
2019-02-18T00:16:39.471Z,6.30
2019-02-18T00:19:09.024Z,6.60
2019-02-18T00:21:41.557Z,6.70
2019-02-18T00:24:11.401Z,6.80
2019-02-18T00:29:12.025Z,7.00
2019-02-18T00:31:51.547Z,7.10
2019-02-18T00:36:50.018Z,7.40
2019-02-18T00:39:19.933Z,7.40
2019-02-18T00:42:00.152Z,7.50
2019-02-18T00:44:32.053Z,7.60
2019-02-18T00:47:01.578Z,7.60
2019-02-18T00:49:32.269Z,7.60
2019-02-18T00:52:02.115Z,7.10
2019-02-18T00:54:31.953Z,7.70
2019-02-18T00:57:01.548Z,7.70
2019-02-18T00:59:31.668Z,7.70
2019-02-18T01:04:33.134Z,7.70
2019-02-18T01:07:09.992Z,7.60
2019-02-18T01:09:39.802Z,7.60
2019-02-18T01:12:14.873Z,7.50
2019-02-18T01:14:44.416Z,7.40
2019-02-18T01:19:43.088Z,7.30
2019-02-18T01:24:45.231Z,7.50
2019-02-18T01:27:24.098Z,7.50
2019-02-18T01:29:53.896Z,7.50
2019-02-18T01:32:23.892Z,7.60
2019-02-18T01:34:53.522Z,7.60
2019-02-18T01:37:26.449Z,7.60
2019-02-18T01:42:33.443Z,7.70
2019-02-18T01:45:02.977Z,7.60
2019-02-18T01:47:32.517Z,7.60
2019-02-18T01:50:02.434Z,7.60
2019-02-18T01:52:33.961Z,7.60
2019-02-18T01:55:03.493Z,7.50
2019-02-18T01:57:39.561Z,8.00
2019-02-18T02:00:11.840Z,7.50
2019-02-18T02:02:41.512Z,7.40
2019-02-18T02:05:12.964Z,7.40
2019-02-18T02:07:42.498Z,7.40
2019-02-18T02:12:44.809Z,7.40
2019-02-18T02:17:46.200Z,7.40
2019-02-18T02:20:16.064Z,7.20
2019-02-18T02:22:48.600Z,7.20
2019-02-18T02:25:18.155Z,7.20
2019-02-18T02:27:50.017Z,7.10
2019-02-18T02:40:26.973Z,7.10
2019-02-18T02:43:00.093Z,7.00
2019-02-18T02:48:03.105Z,7.00
2019-02-18T02:50:32.688Z,7.00
2019-02-18T02:55:33.300Z,6.70
2019-02-18T02:58:07.115Z,6.70
2019-02-18T03:00:37.101Z,6.60
2019-02-18T03:03:18.475Z,6.60
2019-02-18T03:08:20.693Z,7.50
2019-02-18T03:10:49.416Z,6.40
2019-02-18T03:13:19.361Z,6.30
2019-02-18T03:18:20.828Z,6.30
2019-02-18T03:20:50.667Z,6.30
2019-02-18T03:23:23.028Z,5.40
2019-02-18T03:25:54.072Z,6.30
2019-02-18T03:29:07.624Z,6.30
2019-02-18T03:31:37.197Z,7.20
2019-02-18T03:34:17.620Z,6.20
2019-02-18T03:36:47.187Z,6.10
2019-02-18T03:39:16.716Z,6.00
2019-02-18T03:41:46.241Z,5.90
2019-02-18T03:44:15.829Z,5.80
2019-02-18T03:46:45.640Z,5.70
2019-02-18T03:51:44.078Z,6.00
2019-02-18T03:54:14.673Z,5.50
2019-02-18T03:56:44.202Z,5.50
2019-02-18T03:59:13.873Z,5.40
2019-02-18T04:01:44.419Z,5.30
2019-02-18T04:04:14.035Z,5.30
2019-02-18T04:06:50.410Z,5.20
2019-02-18T04:11:49.106Z,5.30
2019-02-18T04:14:19.040Z,5.30
2019-02-18T04:19:18.347Z,5.40
2019-02-18T04:21:58.239Z,5.40
2019-02-18T04:24:28.067Z,5.50
2019-02-18T04:29:26.561Z,5.60
2019-02-18T04:31:59.154Z,5.10
2019-02-18T04:37:03.729Z,6.90
2019-02-18T04:39:33.563Z,5.70
2019-02-18T04:42:06.443Z,5.80
2019-02-18T04:44:35.981Z,5.90
2019-02-18T04:49:37.471Z,6.00
2019-02-18T04:52:13.081Z,7.00
2019-02-18T04:54:42.778Z,6.10
2019-02-18T04:59:43.595Z,6.20
2019-02-18T05:02:23.093Z,6.20
2019-02-18T05:04:52.876Z,6.20
2019-02-18T05:09:51.318Z,6.20
2019-02-18T05:12:21.121Z,6.10
2019-02-18T05:14:50.644Z,6.00
2019-02-18T05:17:23.559Z,6.50
2019-02-18T05:19:53.091Z,5.90
2019-02-18T05:27:33.227Z,5.70
2019-02-18T05:30:01.656Z,5.70
2019-02-18T05:32:33.407Z,5.70
2019-02-18T05:35:07.238Z,5.70
2019-02-18T05:37:37.045Z,5.70
2019-02-18T05:40:06.627Z,5.90
2019-02-18T05:42:36.275Z,5.60
2019-02-18T05:50:08.504Z,5.70
2019-02-18T05:52:41.701Z,5.80
2019-02-18T05:55:11.255Z,5.80
2019-02-18T05:57:47.100Z,5.90
2019-02-18T06:00:16.764Z,6.40
2019-02-18T06:02:48.092Z,6.00
2019-02-18T06:05:17.987Z,6.00
2019-02-18T06:07:50.284Z,5.90
2019-02-18T06:10:19.895Z,5.90
2019-02-18T06:12:56.660Z,6.00
2019-02-18T06:15:26.237Z,6.00
2019-02-18T06:25:26.990Z,5.90
2019-02-18T06:28:01.101Z,6.00
2019-02-18T06:33:04.915Z,6.10
2019-02-18T06:35:34.528Z,6.10
2019-02-18T06:38:09.954Z,6.20
2019-02-18T06:40:41.176Z,6.20
2019-02-18T06:43:15.545Z,7.40
2019-02-18T06:48:51.368Z,6.40
2019-02-18T06:51:21.332Z,6.50
2019-02-18T06:53:51.257Z,6.50
2019-02-18T06:56:28.325Z,7.50
2019-02-18T06:59:09.138Z,7.70
2019-02-18T07:01:44.979Z,6.80
2019-02-18T07:04:24.103Z,6.80
2019-02-18T07:06:59.856Z,6.90
2019-02-18T07:12:33.320Z,6.90
2019-02-18T07:17:33.827Z,6.90
2019-02-18T07:20:03.754Z,7.00
2019-02-18T07:22:33.633Z,7.60
2019-02-18T07:25:03.180Z,6.90
2019-02-18T07:27:52.709Z,6.90
2019-02-18T07:30:22.297Z,6.90
2019-02-18T07:32:51.878Z,6.90
2019-02-18T07:35:21.489Z,6.90
2019-02-18T07:37:51.417Z,7.00
2019-02-18T07:40:21.048Z,7.10
2019-02-18T07:42:50.649Z,7.10
2019-02-18T07:45:20.482Z,7.30
2019-02-18T07:47:50.046Z,8.90
2019-02-18T07:50:20.885Z,10.50
2019-02-18T07:52:51.109Z,11.70
2019-02-18T07:55:20.669Z,12.80
2019-02-18T07:57:55.745Z,14.00
2019-02-18T08:00:25.314Z,14.00
2019-02-18T08:02:56.093Z,14.80
2019-02-18T08:05:25.762Z,16.00
2019-02-18T08:07:59.742Z,16.60
2019-02-18T08:10:30.366Z,17.10
2019-02-18T08:13:00.693Z,19.30
2019-02-18T08:15:30.589Z,19.30
2019-02-18T08:18:09.952Z,19.90
2019-02-18T08:20:39.497Z,19.90
2019-02-18T08:23:09.094Z,18.60
2019-02-18T08:25:38.795Z,18.90
2019-02-18T08:28:11.172Z,20.20
2019-02-18T08:30:41.115Z,20.50
2019-02-18T08:33:18.611Z,20.50
2019-02-18T08:35:48.167Z,19.90
2019-02-18T08:38:17.741Z,13.80
2019-02-18T08:40:47.350Z,11.50
2019-02-18T08:43:21.605Z,11.10
2019-02-18T08:45:51.190Z,10.70
2019-02-18T08:48:21.216Z,10.30
2019-02-18T08:55:51.861Z,9.70
2019-02-18T08:58:24.750Z,9.60
2019-02-18T09:03:27.745Z,9.50
2019-02-18T09:05:57.668Z,9.40
2019-02-18T09:08:31.209Z,9.30
2019-02-18T09:11:01.290Z,9.30
2019-02-18T09:18:41.346Z,9.30
2019-02-18T09:23:50.891Z,9.00
2019-02-18T09:26:20.579Z,9.60
2019-02-18T09:31:24.476Z,9.50
2019-02-18T09:33:54.063Z,9.50
2019-02-18T09:36:23.677Z,9.90
2019-02-18T09:39:00.246Z,9.90
2019-02-18T09:43:59.020Z,10.10
2019-02-18T09:46:28.623Z,10.20
2019-02-18T09:48:58.201Z,10.30
2019-02-18T09:51:27.773Z,10.40
2019-02-18T09:53:57.733Z,10.40
2019-02-18T10:01:25.920Z,10.60
2019-02-18T10:03:59.492Z,11.60
2019-02-18T10:06:29.117Z,10.70
2019-02-18T10:09:12.849Z,10.80
2019-02-18T10:11:42.442Z,10.80
2019-02-18T10:16:40.984Z,10.90
2019-02-18T10:21:39.729Z,11.00
2019-02-18T10:24:22.778Z,11.10
2019-02-18T10:26:52.341Z,11.20
2019-02-18T10:29:21.897Z,11.70
2019-02-18T10:31:51.537Z,11.30
2019-02-18T10:36:48.411Z,11.60
2019-02-18T10:39:28.108Z,11.70
2019-02-18T10:41:57.799Z,12.30
2019-02-18T10:44:27.510Z,12.70
2019-02-18T10:49:26.495Z,12.20
2019-02-18T10:54:29.615Z,12.50
2019-02-18T10:59:40.669Z,12.80
2019-02-18T11:02:11.088Z,12.90
2019-02-18T11:04:40.649Z,13.00
2019-02-18T11:07:10.257Z,13.10
2019-02-18T11:09:41.510Z,13.10
2019-02-18T11:12:11.084Z,13.00
2019-02-18T11:14:42.763Z,13.10
2019-02-18T11:17:12.642Z,13.20
2019-02-18T11:19:42.530Z,13.20
2019-02-18T11:22:12.153Z,13.30
2019-02-18T11:24:44.063Z,13.40
2019-02-18T11:27:13.593Z,13.40
2019-02-18T11:32:22.718Z,13.50
2019-02-18T11:34:52.589Z,13.70
2019-02-18T11:37:22.276Z,13.80
2019-02-18T11:39:52.257Z,14.00
2019-02-18T11:42:21.829Z,14.10
2019-02-18T11:44:57.374Z,14.30
2019-02-18T11:47:27.669Z,14.30
2019-02-18T11:49:57.663Z,13.60
2019-02-18T11:52:27.218Z,14.40
2019-02-18T11:55:00.502Z,14.40
2019-02-18T11:57:31.677Z,14.50
2019-02-18T12:00:05.224Z,14.50
2019-02-18T12:02:35.416Z,14.60
2019-02-18T12:05:08.649Z,14.60
2019-02-18T12:07:38.653Z,14.70
2019-02-18T12:10:12.971Z,15.00
2019-02-18T12:12:42.896Z,14.80
2019-02-18T12:15:15.170Z,14.90
2019-02-18T12:17:44.805Z,15.00
2019-02-18T12:20:17.350Z,15.20
2019-02-18T12:22:47.202Z,15.30
2019-02-18T12:25:28.237Z,15.20
2019-02-18T12:27:58.298Z,15.30
2019-02-18T12:30:28.238Z,15.40
2019-02-18T12:32:57.928Z,15.50
2019-02-18T12:37:58.146Z,15.70
2019-02-18T12:40:34.978Z,15.70
2019-02-18T12:43:04.538Z,15.80
2019-02-18T12:45:34.134Z,15.80
2019-02-18T12:48:04.439Z,15.80
2019-02-18T12:50:50.816Z,15.90
2019-02-18T12:53:20.333Z,15.80
2019-02-18T12:55:51.136Z,15.90
2019-02-18T12:58:35.204Z,15.80
2019-02-18T13:01:06.835Z,15.80
2019-02-18T13:04:01.015Z,15.90
2019-02-18T13:06:51.162Z,15.90
2019-02-18T13:09:20.907Z,16.00
2019-02-18T13:11:59.313Z,16.00
2019-02-18T13:14:28.543Z,16.10
2019-02-18T13:16:58.115Z,16.20
2019-02-18T13:19:28.029Z,16.20
2019-02-18T13:21:58.019Z,16.20
2019-02-18T13:26:58.505Z,16.20
2019-02-18T13:29:28.187Z,16.30
2019-02-18T13:31:57.721Z,16.30
2019-02-18T13:34:27.721Z,16.30
2019-02-18T13:39:33.566Z,16.50
2019-02-18T13:42:07.761Z,16.50
2019-02-18T13:44:34.685Z,16.50
2019-02-18T13:47:04.947Z,16.50
2019-02-18T13:49:35.108Z,16.50
2019-02-18T13:52:13.871Z,16.50
2019-02-18T13:54:43.829Z,16.50
2019-02-18T13:57:13.545Z,16.50
2019-02-18T13:59:43.153Z,16.50
2019-02-18T14:02:13.986Z,16.40
2019-02-18T14:04:43.620Z,16.40
2019-02-18T14:07:24.476Z,16.40
2019-02-18T14:09:54.076Z,16.40
2019-02-18T14:12:23.896Z,16.20
2019-02-18T14:14:53.925Z,16.40
2019-02-18T14:17:23.849Z,16.30
2019-02-18T14:22:28.596Z,16.30
2019-02-18T14:27:28.135Z,16.20
2019-02-18T14:29:57.839Z,16.20
2019-02-18T14:32:33.453Z,16.40
2019-02-18T14:35:03.059Z,16.20
2019-02-18T14:37:34.519Z,16.10
2019-02-18T14:40:04.546Z,16.00
2019-02-18T14:42:42.579Z,15.90
2019-02-18T14:47:41.738Z,16.10
2019-02-18T14:50:12.133Z,15.50
2019-02-18T14:52:42.193Z,15.30
2019-02-18T14:55:14.884Z,15.30
2019-02-18T14:57:51.762Z,15.20
2019-02-18T15:02:53.580Z,15.30
2019-02-18T15:05:24.007Z,15.30
2019-02-18T15:07:53.578Z,15.30
2019-02-18T15:10:23.150Z,15.40
2019-02-18T15:12:54.681Z,15.50
2019-02-18T15:15:24.245Z,15.60
2019-02-18T15:20:21.308Z,15.50
2019-02-18T15:23:00.839Z,15.10
2019-02-18T15:25:31.717Z,15.00
2019-02-18T15:28:01.393Z,14.90
2019-02-18T15:30:31.408Z,14.80
2019-02-18T15:35:38.202Z,14.80
2019-02-18T15:38:09.116Z,14.80
2019-02-18T15:40:38.731Z,14.60
2019-02-18T15:43:08.785Z,14.40
2019-02-18T15:50:49.619Z,13.90
2019-02-18T15:53:20.226Z,13.80
2019-02-18T15:58:20.740Z,13.60
2019-02-18T16:00:59.300Z,13.50
2019-02-18T16:05:58.273Z,13.10
2019-02-18T16:08:28.567Z,13.10
2019-02-18T16:10:58.513Z,12.80
2019-02-18T16:13:28.157Z,12.80
2019-02-18T16:15:58.285Z,12.60
2019-02-18T16:18:31.405Z,12.50
2019-02-18T16:21:00.988Z,12.40
2019-02-18T16:23:32.985Z,12.50
2019-02-18T16:36:10.070Z,12.10
2019-02-18T16:38:39.731Z,12.10
2019-02-18T16:43:48.286Z,11.90
2019-02-18T16:46:18.338Z,11.80
2019-02-18T16:48:48.310Z,11.80
2019-02-18T16:51:18.042Z,11.70
2019-02-18T16:53:49.041Z,11.50
2019-02-18T16:58:55.316Z,11.50
2019-02-18T17:01:25.416Z,11.40
2019-02-18T17:03:55.145Z,11.30
2019-02-18T17:16:34.501Z,13.70
2019-02-18T17:21:45.593Z,11.00
2019-02-18T17:24:15.198Z,11.00
2019-02-18T17:26:45.056Z,11.00
2019-02-18T17:31:43.638Z,10.90
2019-02-18T17:39:18.707Z,10.90
2019-02-18T17:41:51.404Z,10.90
2019-02-18T17:44:21.722Z,10.90
2019-02-18T17:49:20.319Z,10.80
2019-02-18T17:56:51.584Z,10.80
2019-02-18T17:59:25.454Z,10.70
2019-02-18T18:01:55.042Z,10.70
2019-02-18T18:04:28.389Z,10.70
2019-02-18T18:06:58.745Z,10.70
2019-02-18T18:09:32.015Z,10.60
2019-02-18T18:12:01.593Z,10.60
2019-02-18T18:22:10.708Z,10.40
2019-02-18T18:37:14.033Z,10.10
2019-02-18T18:39:46.693Z,10.00
2019-02-18T18:42:16.322Z,9.90
2019-02-18T18:52:23.767Z,9.30
2019-02-18T18:54:56.588Z,9.80
2019-02-18T18:57:26.171Z,9.70
2019-02-18T19:02:28.705Z,9.70
2019-02-18T19:05:02.921Z,9.70
2019-02-18T19:07:32.699Z,9.70
2019-02-18T19:10:04.137Z,9.70
2019-02-18T19:12:33.994Z,9.70
2019-02-18T19:17:39.165Z,9.70
2019-02-18T19:25:15.670Z,9.10
2019-02-18T19:27:46.243Z,9.60
2019-02-18T19:30:25.346Z,9.50
2019-02-18T19:37:52.821Z,9.30
2019-02-18T19:40:22.712Z,9.20
2019-02-18T19:48:00.155Z,8.90
2019-02-18T19:50:35.932Z,8.40
2019-02-18T19:53:05.780Z,7.60
2019-02-18T20:00:33.798Z,9.00
2019-02-18T20:05:42.504Z,9.10
2019-02-18T20:08:12.060Z,9.10
2019-02-18T20:10:41.774Z,9.10
2019-02-18T20:13:11.668Z,9.00
2019-02-18T20:15:41.294Z,9.00
2019-02-18T20:20:48.001Z,7.80
2019-02-18T20:23:17.948Z,9.00
2019-02-18T20:25:47.828Z,8.90
2019-02-18T20:33:16.534Z,8.90
2019-02-18T20:35:51.231Z,8.10
2019-02-18T20:38:21.213Z,9.10
2019-02-18T20:43:20.895Z,8.90
2019-02-18T20:48:28.966Z,8.80
2019-02-18T20:50:59.658Z,8.60
2019-02-18T20:53:29.221Z,8.60
2019-02-18T20:56:00.520Z,8.50
2019-02-18T20:58:32.122Z,8.50
2019-02-18T21:01:11.614Z,8.70
2019-02-18T21:03:41.209Z,8.30
2019-02-18T21:08:41.390Z,8.20
2019-02-18T21:11:15.922Z,8.20
2019-02-18T21:13:45.511Z,8.10
2019-02-18T21:16:15.574Z,8.20
2019-02-18T21:21:22.605Z,8.10
2019-02-18T21:23:52.474Z,8.20
2019-02-18T21:26:22.057Z,8.40
2019-02-18T21:28:51.645Z,8.50
2019-02-18T21:31:22.276Z,8.60
2019-02-18T21:33:51.921Z,8.80
2019-02-18T21:36:24.469Z,8.80
2019-02-18T21:38:57.040Z,9.00
2019-02-18T21:41:26.584Z,9.10
2019-02-18T21:43:56.301Z,9.00
2019-02-18T21:46:29.134Z,9.10
2019-02-18T21:48:58.737Z,9.20
2019-02-18T21:51:32.558Z,10.30
2019-02-18T21:54:02.470Z,9.30
2019-02-18T21:56:34.000Z,9.30
2019-02-18T22:01:35.949Z,9.30
2019-02-18T22:06:37.673Z,9.50
2019-02-18T22:09:07.625Z,9.50
2019-02-18T22:14:09.476Z,9.30
2019-02-18T22:16:43.670Z,9.30
2019-02-18T22:19:13.529Z,9.20
2019-02-18T22:21:47.010Z,9.20
2019-02-18T22:26:54.188Z,9.60
2019-02-18T22:31:53.240Z,9.30
2019-02-18T22:34:22.822Z,9.40
2019-02-18T22:36:56.182Z,9.90
2019-02-18T22:39:26.001Z,9.30
2019-02-18T22:41:59.627Z,9.00
2019-02-18T22:44:30.228Z,9.20
2019-02-18T22:47:02.663Z,9.20
2019-02-18T22:49:34.859Z,9.20
2019-02-18T22:54:33.902Z,9.20
2019-02-18T22:59:43.281Z,9.20
2019-02-18T23:02:13.564Z,9.20
2019-02-18T23:04:43.119Z,10.30
2019-02-18T23:07:20.657Z,9.10
2019-02-18T23:09:51.037Z,9.10
2019-02-18T23:12:20.845Z,9.10
2019-02-18T23:17:21.465Z,9.10
2019-02-18T23:19:51.483Z,9.10
2019-02-18T23:22:21.045Z,9.10
2019-02-18T23:24:51.233Z,9.10
2019-02-18T23:27:25.615Z,9.20
2019-02-18T23:29:55.164Z,9.10
2019-02-18T23:32:28.265Z,9.10
2019-02-18T23:34:58.329Z,9.10
2019-02-18T23:37:28.008Z,9.20
2019-02-18T23:39:58.664Z,9.10
2019-02-18T23:42:32.232Z,9.10
2019-02-18T23:45:01.776Z,9.10
2019-02-18T23:50:02.664Z,9.20
2019-02-18T23:55:06.052Z,9.20
